createdAt,value
2023-03-06T00:00:01.167Z,29.61
2023-03-06T00:02:27.493Z,29.79
2023-03-06T00:04:53.833Z,29.64
2023-03-06T00:07:20.227Z,29.85
2023-03-06T00:09:46.536Z,29.53
2023-03-06T00:12:12.872Z,29.75
2023-03-06T00:14:39.200Z,29.62
2023-03-06T00:17:05.512Z,29.82
2023-03-06T00:19:31.836Z,29.78
2023-03-06T00:21:58.200Z,29.80
2023-03-06T00:24:24.628Z,29.86
2023-03-06T00:26:50.995Z,29.70
2023-03-06T00:29:17.319Z,29.70
2023-03-06T00:31:46.571Z,29.58
2023-03-06T00:34:12.897Z,29.52
2023-03-06T00:36:39.254Z,29.47
2023-03-06T00:39:05.854Z,29.48
2023-03-06T00:41:32.465Z,29.41
2023-03-06T00:43:58.767Z,29.62
2023-03-06T00:46:25.103Z,29.57
2023-03-06T00:48:51.403Z,29.50
2023-03-06T00:51:19.678Z,29.50
2023-03-06T00:53:45.998Z,29.28
2023-03-06T00:56:12.441Z,29.46
2023-03-06T00:58:38.755Z,29.51
2023-03-06T01:01:05.151Z,29.32
2023-03-06T01:03:31.495Z,29.42
2023-03-06T01:05:57.839Z,29.33
2023-03-06T01:08:24.161Z,29.56
2023-03-06T01:10:50.489Z,29.32
2023-03-06T01:13:16.788Z,29.50
2023-03-06T01:15:43.113Z,29.41
2023-03-06T01:18:09.424Z,29.58
2023-03-06T01:20:35.772Z,29.56
2023-03-06T01:23:02.083Z,29.54
2023-03-06T01:25:28.433Z,29.56
2023-03-06T01:27:54.751Z,29.52
2023-03-06T01:30:21.060Z,29.50
2023-03-06T01:32:48.112Z,29.63
2023-03-06T01:35:14.439Z,29.43
2023-03-06T01:37:40.780Z,29.59
2023-03-06T01:40:07.327Z,29.59
2023-03-06T01:42:33.641Z,29.55
2023-03-06T01:45:19.904Z,29.37
2023-03-06T01:47:46.314Z,29.38
2023-03-06T01:50:12.960Z,29.78
2023-03-06T01:52:40.367Z,29.55
2023-03-06T01:55:10.571Z,29.50
2023-03-06T01:57:38.698Z,29.41
2023-03-06T02:00:07.281Z,29.47
2023-03-06T02:02:33.656Z,29.47
2023-03-06T02:05:00.228Z,29.66
2023-03-06T02:07:26.558Z,29.64
2023-03-06T02:09:52.939Z,29.64
2023-03-06T02:12:19.454Z,29.49
2023-03-06T02:14:46.260Z,29.61
2023-03-06T02:17:12.869Z,29.63
2023-03-06T02:19:45.532Z,29.63
2023-03-06T02:22:11.873Z,29.80
2023-03-06T02:24:57.764Z,29.64
2023-03-06T02:27:24.348Z,29.60
2023-03-06T02:29:50.663Z,29.60
2023-03-06T02:32:17.028Z,29.63
2023-03-06T02:34:50.454Z,29.58
2023-03-06T02:37:16.777Z,29.68
2023-03-06T02:39:44.414Z,29.75
2023-03-06T02:42:10.748Z,29.55
2023-03-06T02:44:37.046Z,29.58
2023-03-06T02:47:03.801Z,29.68
2023-03-06T02:49:30.108Z,29.52
2023-03-06T02:51:56.437Z,29.46
2023-03-06T02:54:22.757Z,29.71
2023-03-06T02:56:49.088Z,29.60
2023-03-06T02:59:15.402Z,29.45
2023-03-06T03:01:41.787Z,29.50
2023-03-06T03:04:08.177Z,29.47
2023-03-06T03:06:34.591Z,29.60
2023-03-06T03:09:00.905Z,29.51
2023-03-06T03:11:27.241Z,29.47
2023-03-06T03:13:53.568Z,29.58
2023-03-06T03:16:19.978Z,29.47
2023-03-06T03:18:47.892Z,29.43
2023-03-06T03:21:14.578Z,29.36
2023-03-06T03:23:40.894Z,29.43
2023-03-06T03:26:08.117Z,29.45
2023-03-06T03:28:34.439Z,29.65
2023-03-06T03:31:04.265Z,29.46
2023-03-06T03:33:30.590Z,29.55
2023-03-06T03:35:57.877Z,29.55
2023-03-06T03:38:24.494Z,29.61
2023-03-06T03:40:50.821Z,29.45
2023-03-06T03:43:17.240Z,29.68
2023-03-06T03:45:43.572Z,29.49
2023-03-06T03:48:09.886Z,29.64
2023-03-06T03:50:36.193Z,29.52
2023-03-06T03:53:02.505Z,29.76
2023-03-06T03:55:28.870Z,29.78
2023-03-06T03:57:55.196Z,29.75
2023-03-06T04:00:21.518Z,29.76
2023-03-06T04:02:47.827Z,29.73
2023-03-06T04:05:14.799Z,29.85
2023-03-06T04:07:41.683Z,29.71
2023-03-06T04:10:08.944Z,29.60
2023-03-06T04:12:35.664Z,29.68
2023-03-06T04:15:02.365Z,29.61
2023-03-06T04:17:28.753Z,29.70
2023-03-06T04:19:55.060Z,29.55
2023-03-06T04:22:21.407Z,29.58
2023-03-06T04:24:49.832Z,29.71
2023-03-06T04:27:16.171Z,29.72
2023-03-06T04:29:42.492Z,29.57
2023-03-06T04:32:08.879Z,29.71
2023-03-06T04:34:35.217Z,29.63
2023-03-06T04:37:02.607Z,29.84
2023-03-06T04:39:28.934Z,29.70
2023-03-06T04:41:55.250Z,29.81
2023-03-06T04:44:21.610Z,29.75
2023-03-06T04:46:47.934Z,29.76
2023-03-06T04:49:14.248Z,29.61
2023-03-06T04:51:40.572Z,29.83
2023-03-06T04:54:06.930Z,29.89
2023-03-06T04:56:34.496Z,29.79
2023-03-06T04:59:00.860Z,29.71
2023-03-06T05:01:27.163Z,29.92
2023-03-06T05:03:53.492Z,29.73
2023-03-06T05:06:19.809Z,29.71
2023-03-06T05:08:46.174Z,29.72
2023-03-06T05:11:12.493Z,29.74
2023-03-06T05:13:38.808Z,29.61
2023-03-06T05:16:05.901Z,29.64
2023-03-06T05:18:32.576Z,29.53
2023-03-06T05:20:59.959Z,29.63
2023-03-06T05:23:26.881Z,29.67
2023-03-06T05:25:53.238Z,29.68
2023-03-06T05:28:19.560Z,29.79
2023-03-06T05:30:46.185Z,29.63
2023-03-06T05:33:12.508Z,29.68
2023-03-06T05:35:38.842Z,29.45
2023-03-06T05:38:05.205Z,29.67
2023-03-06T05:40:31.734Z,29.47
2023-03-06T05:42:58.064Z,29.61
2023-03-06T05:45:24.367Z,29.57
2023-03-06T05:47:50.700Z,29.73
2023-03-06T05:50:17.015Z,29.70
2023-03-06T05:52:43.349Z,29.72
2023-03-06T05:55:10.564Z,29.58
2023-03-06T05:57:36.915Z,29.59
2023-03-06T06:00:03.902Z,29.73
2023-03-06T06:02:30.314Z,29.56
2023-03-06T06:04:56.631Z,29.59
2023-03-06T06:07:23.006Z,29.40
2023-03-06T06:09:49.309Z,29.57
2023-03-06T06:12:15.637Z,29.46
2023-03-06T06:14:41.963Z,29.60
2023-03-06T06:17:08.611Z,29.22
2023-03-06T06:19:34.906Z,29.52
2023-03-06T06:22:02.664Z,29.40
2023-03-06T06:24:28.985Z,29.49
2023-03-06T06:26:55.578Z,29.68
2023-03-06T06:29:21.923Z,29.48
2023-03-06T06:31:48.234Z,29.64
2023-03-06T06:34:14.551Z,29.62
2023-03-06T06:36:41.023Z,29.76
2023-03-06T06:39:07.702Z,29.79
2023-03-06T06:41:53.005Z,29.57
2023-03-06T06:44:20.309Z,29.43
2023-03-06T06:49:33.246Z,29.53
2023-03-06T06:51:59.570Z,29.42
2023-03-06T06:54:25.909Z,29.49
2023-03-06T06:56:52.268Z,29.47
2023-03-06T06:59:18.646Z,29.54
2023-03-06T07:01:45.037Z,29.54
2023-03-06T07:04:14.662Z,29.42
2023-03-06T07:06:41.263Z,29.51
2023-03-06T07:09:07.594Z,29.38
2023-03-06T07:11:33.928Z,29.37
2023-03-06T07:14:01.750Z,29.35
2023-03-06T07:16:28.078Z,29.54
2023-03-06T07:18:54.896Z,29.32
2023-03-06T07:21:21.286Z,29.33
2023-03-06T07:23:47.645Z,29.39
2023-03-06T07:26:14.151Z,29.26
2023-03-06T07:28:52.019Z,29.46
2023-03-06T07:31:19.398Z,29.56
2023-03-06T07:33:45.994Z,29.68
2023-03-06T07:36:13.863Z,29.76
2023-03-06T07:38:40.318Z,29.60
2023-03-06T07:41:09.535Z,30.04
2023-03-06T07:43:35.855Z,30.02
2023-03-06T07:46:02.209Z,29.94
2023-03-06T07:48:28.536Z,29.85
2023-03-06T07:50:55.757Z,29.60
2023-03-06T07:53:22.672Z,29.34
2023-03-06T07:55:49.021Z,29.40
2023-03-06T07:58:15.679Z,29.50
2023-03-06T08:00:44.376Z,29.72
2023-03-06T08:03:13.857Z,29.57
2023-03-06T08:05:40.212Z,29.61
2023-03-06T08:08:06.583Z,29.90
2023-03-06T08:10:32.927Z,29.64
2023-03-06T08:12:59.264Z,29.97
2023-03-06T08:15:25.920Z,29.86
2023-03-06T08:17:52.859Z,29.74
2023-03-06T08:20:19.242Z,29.80
2023-03-06T08:22:45.603Z,29.67
2023-03-06T08:25:13.369Z,29.66
2023-03-06T08:27:39.958Z,29.51
2023-03-06T08:30:07.006Z,29.58
2023-03-06T08:32:34.938Z,29.63
2023-03-06T08:35:01.851Z,29.77
2023-03-06T08:37:28.194Z,29.85
2023-03-06T08:39:54.548Z,29.93
2023-03-06T08:42:20.880Z,29.84
2023-03-06T08:44:47.199Z,29.77
2023-03-06T08:47:13.585Z,29.78
2023-03-06T08:49:39.898Z,29.83
2023-03-06T08:52:06.974Z,30.38
2023-03-06T08:54:34.424Z,31.38
2023-03-06T08:57:00.735Z,30.72
2023-03-06T08:59:27.044Z,30.00
2023-03-06T09:01:53.431Z,30.52
2023-03-06T09:04:19.839Z,30.01
2023-03-06T09:06:46.412Z,29.97
2023-03-06T09:09:12.885Z,30.15
2023-03-06T09:11:39.197Z,30.33
2023-03-06T09:14:05.710Z,30.16
2023-03-06T09:16:32.159Z,30.07
2023-03-06T09:18:58.771Z,30.13
2023-03-06T09:21:25.465Z,30.32
2023-03-06T09:23:51.819Z,30.24
2023-03-06T09:26:18.593Z,30.34
2023-03-06T09:28:45.003Z,30.52
2023-03-06T09:31:15.615Z,30.54
2023-03-06T09:33:42.176Z,30.50
2023-03-06T09:36:08.714Z,30.46
2023-03-06T09:38:35.048Z,30.62
2023-03-06T09:41:03.486Z,30.58
2023-03-06T09:43:31.359Z,30.26
2023-03-06T09:45:58.151Z,30.34
2023-03-06T09:48:50.932Z,30.37
2023-03-06T09:51:17.273Z,30.26
2023-03-06T09:53:46.780Z,30.09
2023-03-06T09:56:16.564Z,30.24
2023-03-06T09:58:44.173Z,30.28
2023-03-06T10:01:10.402Z,29.98
2023-03-06T10:03:39.200Z,30.18
2023-03-06T10:06:13.045Z,30.22
2023-03-06T10:08:45.408Z,30.32
2023-03-06T10:11:11.871Z,30.69
2023-03-06T10:13:43.211Z,30.54
2023-03-06T10:16:09.513Z,30.59
2023-03-06T10:18:38.390Z,30.41
2023-03-06T10:21:18.686Z,30.18
2023-03-06T10:23:55.305Z,30.13
2023-03-06T10:26:25.531Z,30.22
2023-03-06T10:28:51.831Z,30.03
2023-03-06T10:31:25.010Z,30.30
2023-03-06T10:33:51.335Z,30.29
2023-03-06T10:36:18.312Z,30.16
2023-03-06T10:38:44.765Z,30.38
2023-03-06T10:41:10.999Z,30.36
2023-03-06T10:43:45.038Z,30.38
2023-03-06T10:46:12.279Z,30.28
2023-03-06T10:48:40.962Z,30.25
2023-03-06T10:51:18.481Z,30.03
2023-03-06T10:53:57.153Z,30.14
2023-03-06T10:56:26.447Z,30.04
2023-03-06T10:59:09.175Z,29.82
2023-03-06T11:01:35.567Z,29.97
2023-03-06T11:04:21.163Z,29.86
2023-03-06T11:06:47.527Z,30.00
2023-03-06T11:09:19.958Z,29.91
2023-03-06T11:11:46.297Z,29.93
2023-03-06T11:14:19.449Z,29.85
2023-03-06T11:16:52.574Z,29.72
2023-03-06T11:19:24.027Z,29.63
2023-03-06T11:22:04.056Z,29.64
2023-03-06T11:24:37.419Z,29.62
2023-03-06T11:27:09.129Z,29.73
2023-03-06T11:29:42.294Z,29.52
2023-03-06T11:32:21.177Z,29.80
2023-03-06T11:34:51.284Z,29.71
2023-03-06T11:37:33.842Z,29.75
2023-03-06T11:40:06.568Z,29.80
2023-03-06T11:42:34.914Z,29.74
2023-03-06T11:45:09.959Z,29.89
2023-03-06T11:47:50.085Z,29.98
2023-03-06T11:50:32.140Z,30.01
2023-03-06T11:53:02.241Z,29.92
2023-03-06T11:55:32.593Z,29.71
2023-03-06T11:58:12.229Z,29.52
2023-03-06T12:00:42.265Z,29.53
2023-03-06T12:03:14.307Z,29.74
2023-03-06T12:05:47.285Z,29.45
2023-03-06T12:08:17.400Z,29.55
2023-03-06T12:10:54.693Z,29.59
2023-03-06T12:13:41.231Z,29.43
2023-03-06T12:16:07.652Z,29.37
2023-03-06T12:18:42.960Z,29.45
2023-03-06T12:21:17.676Z,29.50
2023-03-06T12:24:23.248Z,29.45
2023-03-06T12:26:52.077Z,29.50
2023-03-06T12:29:21.193Z,29.31
2023-03-06T12:31:56.018Z,28.85
2023-03-06T12:34:41.186Z,28.50
2023-03-06T12:37:16.558Z,29.02
2023-03-06T12:39:48.949Z,29.30
2023-03-06T12:42:24.495Z,29.37
2023-03-06T12:45:09.338Z,29.41
2023-03-06T12:47:38.391Z,29.25
2023-03-06T12:50:07.557Z,29.50
2023-03-06T12:52:33.887Z,29.49
2023-03-06T12:55:00.632Z,29.85
2023-03-06T12:57:26.960Z,29.87
2023-03-06T12:59:53.428Z,29.75
2023-03-06T13:02:38.988Z,29.82
2023-03-06T13:05:22.574Z,30.17
2023-03-06T13:08:07.832Z,29.97
2023-03-06T13:10:34.450Z,30.29
2023-03-06T13:13:05.177Z,29.96
2023-03-06T13:15:41.838Z,30.16
2023-03-06T13:18:23.680Z,30.02
2023-03-06T13:20:50.638Z,29.90
2023-03-06T13:23:46.396Z,29.95
2023-03-06T13:26:25.172Z,29.85
2023-03-06T13:28:52.111Z,30.08
2023-03-06T13:31:36.800Z,29.93
2023-03-06T13:34:03.791Z,30.15
2023-03-06T13:36:32.953Z,30.08
2023-03-06T13:39:03.592Z,30.16
2023-03-06T13:41:32.890Z,30.32
2023-03-06T13:43:59.859Z,30.02
2023-03-06T13:46:35.115Z,30.30
2023-03-06T13:49:07.490Z,30.03
2023-03-06T13:52:00.205Z,29.88
2023-03-06T13:54:38.440Z,29.85
2023-03-06T13:57:04.705Z,30.08
2023-03-06T13:59:43.242Z,29.85
2023-03-06T14:02:21.577Z,29.95
2023-03-06T14:04:59.989Z,29.47
2023-03-06T14:07:27.537Z,29.57
2023-03-06T14:12:23.582Z,29.51
2023-03-06T14:14:51.231Z,29.70
2023-03-06T14:17:24.307Z,29.53
2023-03-06T14:19:50.615Z,29.63
2023-03-06T14:22:17.569Z,29.79
2023-03-06T14:24:45.921Z,29.78
2023-03-06T14:27:18.904Z,29.79
2023-03-06T14:29:48.490Z,29.60
2023-03-06T14:32:16.139Z,29.52
2023-03-06T14:34:45.425Z,29.54
2023-03-06T14:37:21.350Z,29.69
2023-03-06T14:39:47.816Z,29.38
2023-03-06T14:42:18.113Z,29.54
2023-03-06T14:44:44.794Z,29.55
2023-03-06T14:47:12.521Z,29.51
2023-03-06T14:49:38.831Z,29.57
2023-03-06T14:52:05.178Z,29.49
2023-03-06T14:54:32.276Z,29.48
2023-03-06T14:57:02.471Z,29.48
2023-03-06T14:59:29.418Z,29.43
2023-03-06T15:02:22.225Z,29.39
2023-03-06T15:04:51.863Z,29.32
2023-03-06T15:07:22.500Z,29.50
2023-03-06T15:09:49.391Z,29.47
2023-03-06T15:12:19.692Z,29.44
2023-03-06T15:15:10.365Z,29.36
2023-03-06T15:17:40.488Z,29.42
2023-03-06T15:20:10.034Z,29.42
2023-03-06T15:22:37.766Z,29.43
2023-03-06T15:25:07.551Z,29.32
2023-03-06T15:27:33.868Z,29.27
2023-03-06T15:30:29.716Z,29.32
2023-03-06T15:33:09.186Z,29.39
2023-03-06T15:35:37.960Z,29.46
2023-03-06T15:38:20.189Z,29.43
2023-03-06T15:40:53.566Z,29.41
2023-03-06T15:43:19.888Z,29.25
2023-03-06T15:45:46.256Z,29.22
2023-03-06T15:48:14.576Z,29.25
2023-03-06T15:50:40.924Z,29.25
2023-03-06T15:53:07.292Z,29.23
2023-03-06T15:55:33.615Z,29.10
2023-03-06T15:58:00.617Z,29.22
2023-03-06T16:00:28.647Z,29.25
2023-03-06T16:02:55.557Z,29.14
2023-03-06T16:05:21.898Z,29.21
2023-03-06T16:07:48.273Z,29.20
2023-03-06T16:10:15.173Z,29.06
2023-03-06T16:12:46.733Z,29.25
2023-03-06T16:15:21.021Z,28.95
2023-03-06T16:17:47.415Z,29.15
2023-03-06T16:20:14.616Z,29.03
2023-03-06T16:22:41.320Z,28.89
2023-03-06T16:25:08.697Z,28.94
2023-03-06T16:27:35.174Z,29.02
2023-03-06T16:30:01.485Z,29.22
2023-03-06T16:32:28.876Z,29.41
2023-03-06T16:34:55.235Z,29.17
2023-03-06T16:37:21.575Z,29.15
2023-03-06T16:39:48.105Z,29.11
2023-03-06T16:42:16.905Z,29.20
2023-03-06T16:44:43.228Z,29.06
2023-03-06T16:47:10.264Z,29.35
2023-03-06T16:49:36.611Z,29.04
2023-03-06T16:52:04.558Z,28.94
2023-03-06T16:54:30.877Z,29.00
2023-03-06T16:56:57.220Z,28.80
2023-03-06T16:59:24.876Z,28.78
2023-03-06T17:01:51.485Z,28.70
2023-03-06T17:04:17.796Z,27.59
2023-03-06T17:06:44.383Z,28.06
2023-03-06T17:09:10.926Z,27.97
2023-03-06T17:11:42.051Z,27.94
2023-03-06T17:14:08.360Z,27.91
2023-03-06T17:16:36.911Z,27.96
2023-03-06T17:19:03.258Z,27.79
2023-03-06T17:21:30.301Z,27.83
2023-03-06T17:23:57.191Z,27.94
2023-03-06T17:26:24.222Z,27.89
2023-03-06T17:28:50.961Z,27.96
2023-03-06T17:31:18.368Z,28.03
2023-03-06T17:33:45.288Z,28.01
2023-03-06T17:36:11.743Z,27.93
2023-03-06T17:38:38.080Z,28.07
2023-03-06T17:41:04.768Z,28.01
2023-03-06T17:43:31.344Z,28.14
2023-03-06T17:45:57.651Z,28.18
2023-03-06T17:48:23.969Z,27.99
2023-03-06T17:50:56.180Z,28.02
2023-03-06T17:53:23.031Z,27.97
2023-03-06T17:55:49.332Z,28.01
2023-03-06T17:58:15.707Z,27.92
2023-03-06T18:00:42.055Z,27.97
2023-03-06T18:03:09.289Z,28.25
2023-03-06T18:05:35.888Z,28.06
2023-03-06T18:08:02.197Z,28.56
2023-03-06T18:10:28.524Z,28.22
2023-03-06T18:12:56.497Z,28.39
2023-03-06T18:15:22.879Z,28.13
2023-03-06T18:17:49.273Z,28.24
2023-03-06T18:20:15.645Z,28.07
2023-03-06T18:22:42.047Z,28.26
2023-03-06T18:25:08.586Z,28.23
2023-03-06T18:27:34.945Z,28.27
2023-03-06T18:30:01.334Z,28.29
2023-03-06T18:32:27.740Z,28.26
2023-03-06T18:34:55.594Z,28.28
2023-03-06T18:37:22.105Z,28.31
2023-03-06T18:39:48.485Z,28.45
2023-03-06T18:42:14.816Z,28.83
2023-03-06T18:44:41.243Z,28.74
2023-03-06T18:47:07.595Z,28.74
2023-03-06T18:49:33.925Z,29.14
2023-03-06T18:52:00.242Z,29.15
2023-03-06T18:54:28.521Z,29.12
2023-03-06T18:56:54.852Z,29.09
2023-03-06T18:59:21.208Z,29.25
2023-03-06T19:01:47.659Z,29.56
2023-03-06T19:04:13.985Z,29.93
2023-03-06T19:06:40.393Z,29.69
2023-03-06T19:09:06.713Z,29.82
2023-03-06T19:11:33.090Z,29.71
2023-03-06T19:13:59.423Z,29.61
2023-03-06T19:16:26.608Z,29.52
2023-03-06T19:18:55.121Z,29.57
2023-03-06T19:21:22.105Z,29.64
2023-03-06T19:23:48.683Z,29.61
2023-03-06T19:26:15.211Z,29.48
2023-03-06T19:28:41.695Z,29.59
2023-03-06T19:31:15.833Z,29.60
2023-03-06T19:33:42.229Z,29.86
2023-03-06T19:36:09.427Z,29.26
2023-03-06T19:38:35.788Z,28.67
2023-03-06T19:41:02.142Z,28.36
2023-03-06T19:43:28.785Z,28.45
2023-03-06T19:45:55.604Z,28.46
2023-03-06T19:48:22.837Z,28.44
2023-03-06T19:50:49.208Z,28.50
2023-03-06T19:53:15.915Z,28.62
2023-03-06T19:55:42.475Z,28.47
2023-03-06T19:58:08.829Z,28.24
2023-03-06T20:00:35.316Z,28.22
2023-03-06T20:03:01.669Z,28.27
2023-03-06T20:05:27.977Z,28.37
2023-03-06T20:07:54.303Z,28.33
2023-03-06T20:10:20.633Z,28.10
2023-03-06T20:12:47.191Z,28.31
2023-03-06T20:15:13.530Z,28.23
2023-03-06T20:17:40.619Z,28.29
2023-03-06T20:20:08.182Z,28.62
2023-03-06T20:22:34.487Z,28.35
2023-03-06T20:25:00.810Z,28.12
2023-03-06T20:27:27.116Z,27.84
2023-03-06T20:29:53.450Z,28.58
2023-03-06T20:32:19.847Z,28.23
2023-03-06T20:34:46.185Z,28.12
2023-03-06T20:37:12.515Z,28.60
2023-03-06T20:39:39.097Z,28.71
2023-03-06T20:42:05.488Z,28.48
2023-03-06T20:44:31.843Z,28.52
2023-03-06T20:46:58.243Z,28.62
2023-03-06T20:49:27.060Z,28.57
2023-03-06T20:51:53.672Z,28.57
2023-03-06T20:54:20.053Z,28.64
2023-03-06T20:56:47.117Z,28.57
2023-03-06T20:59:13.444Z,28.48
2023-03-06T21:01:41.480Z,28.23
2023-03-06T21:04:08.820Z,28.03
2023-03-06T21:06:35.146Z,28.56
2023-03-06T21:09:01.554Z,28.33
2023-03-06T21:11:27.929Z,28.30
2023-03-06T21:13:54.297Z,28.23
2023-03-06T21:16:21.026Z,28.54
2023-03-06T21:18:47.391Z,28.67
2023-03-06T21:21:14.583Z,28.76
2023-03-06T21:23:40.890Z,28.66
2023-03-06T21:26:07.284Z,28.34
2023-03-06T21:28:33.602Z,28.40
2023-03-06T21:31:00.258Z,28.52
2023-03-06T21:33:26.596Z,28.75
2023-03-06T21:35:52.999Z,28.70
2023-03-06T21:38:19.366Z,27.95
2023-03-06T21:40:45.677Z,28.27
2023-03-06T21:43:12.508Z,28.35
2023-03-06T21:45:42.739Z,28.44
2023-03-06T21:48:09.277Z,28.52
2023-03-06T21:50:35.955Z,28.49
2023-03-06T21:53:02.489Z,28.46
2023-03-06T21:55:29.114Z,28.64
2023-03-06T21:57:55.459Z,28.66
2023-03-06T22:00:23.604Z,28.64
2023-03-06T22:02:50.133Z,28.36
2023-03-06T22:05:16.540Z,28.60
2023-03-06T22:07:42.859Z,28.42
2023-03-06T22:10:11.861Z,28.35
2023-03-06T22:12:38.503Z,28.63
2023-03-06T22:15:05.188Z,28.70
2023-03-06T22:17:31.688Z,28.62
2023-03-06T22:19:57.999Z,28.37
2023-03-06T22:22:24.391Z,28.49
2023-03-06T22:24:50.705Z,28.25
2023-03-06T22:27:17.049Z,28.62
2023-03-06T22:29:43.368Z,28.54
2023-03-06T22:32:09.994Z,28.39
2023-03-06T22:34:36.397Z,28.65
2023-03-06T22:37:02.699Z,28.58
2023-03-06T22:39:29.237Z,28.60
2023-03-06T22:41:55.702Z,28.56
2023-03-06T22:44:22.208Z,28.41
2023-03-06T22:46:48.710Z,28.35
2023-03-06T22:49:16.753Z,28.68
2023-03-06T22:51:43.183Z,28.73
2023-03-06T22:54:09.676Z,28.44
2023-03-06T22:56:36.279Z,28.44
2023-03-06T22:59:02.617Z,28.42
2023-03-06T23:01:29.630Z,28.53
2023-03-06T23:03:56.753Z,28.58
2023-03-06T23:06:23.993Z,28.58
2023-03-06T23:08:51.193Z,28.43
2023-03-06T23:11:19.401Z,28.73
2023-03-06T23:13:45.905Z,28.49
2023-03-06T23:16:12.222Z,28.56
2023-03-06T23:18:38.667Z,28.49
2023-03-06T23:21:08.733Z,28.59
2023-03-06T23:23:35.558Z,28.52
2023-03-06T23:26:01.864Z,28.50
2023-03-06T23:28:28.250Z,28.54
2023-03-06T23:30:54.884Z,28.29
2023-03-06T23:33:21.253Z,28.74
2023-03-06T23:35:47.634Z,28.34
2023-03-06T23:38:13.970Z,28.46
2023-03-06T23:40:40.286Z,28.35
2023-03-06T23:43:06.605Z,28.46
2023-03-06T23:45:32.968Z,28.58
2023-03-06T23:47:59.292Z,28.40
2023-03-06T23:50:26.135Z,28.48
2023-03-06T23:52:53.050Z,28.72
2023-03-06T23:55:19.406Z,28.63
2023-03-06T23:57:45.736Z,28.67
